Time;durP1;ratioP1;P1;durP2;ratioP2;P2;SDS_P1;SDS_P2;PMS_P1;PMS_P2;Temp;Humidity;BMP_temperature;BMP_pressure;BME280_temperature;BME280_humidity;BME280_pressure;Samples;Min_cycle;Max_cycle;Signal;HPM_P1;HPM_P2
2022/09/10 07:34:11;;;;;;;9.27;4.10;;;;;;;16.92;74.25;96483.19;2114604;28;20800;-65
2022/09/10 07:35:12;;;;;;;3.80;1.27;;;;;;;16.91;74.40;96477.06;2066567;28;1249171;-65
2022/09/10 07:36:14;;;;;;;8.02;2.13;;;;;;;16.98;73.70;96466.91;2103095;28;20728;-65
2022/09/10 07:37:16;;;;;;;4.63;0.88;;;;;;;16.66;74.61;96472.69;2104679;27;20732;-65
2022/09/10 07:38:22;;;;;;;4.22;1.00;;;;;;;17.08;73.63;96475.81;2124179;27;20334;-65
2022/09/10 07:39:23;;;;;;;1.50;0.70;;;;;;;17.23;72.92;96486.19;2127890;27;20283;-65
2022/09/10 07:58:41;;;;;;;3.47;0.90;;;;;;;15.21;80.20;96507.13;2065544;27;1245962;-72
2022/09/10 07:59:47;;;;;;;4.93;0.90;;;;;;;15.22;80.38;96508.78;2110077;28;20194;-72
2022/09/10 08:00:48;;;;;;;2.60;0.80;;;;;;;15.34;79.13;96508.00;2112507;28;20252;-72
2022/09/10 08:01:49;;;;;;;4.70;0.90;;;;;;;15.47;78.79;96504.56;2112086;28;20803;-73
2022/09/10 08:02:51;;;;;;;6.28;1.00;;;;;;;15.52;78.72;96490.13;2086539;28;20286;-73
2022/09/10 08:03:57;;;;;;;3.00;0.90;;;;;;;15.68;78.47;96507.53;2081079;28;20283;-73
2022/09/10 08:05:05;;;;;;;2.08;0.73;;;;;;;15.54;77.68;96492.69;2082130;28;20233;-73
2022/09/10 08:06:08;;;;;;;4.95;1.02;;;;;;;15.63;78.42;96504.34;2082446;28;20201;-73
2022/09/10 08:07:09;;;;;;;4.47;1.20;;;;;;;15.66;77.62;96489.19;2089972;28;20279;-72
2022/09/10 08:15:12;;;;;;;8.65;2.35;;;;;;;16.54;74.56;96513.09;2085549;28;20577;-73
2022/09/10 08:16:19;;;;;;;4.28;1.25;;;;;;;16.26;74.22;96494.81;2079035;28;20193;-64
2022/09/10 08:17:21;;;;;;;24.52;11.45;;;;;;;16.22;74.60;96508.31;2076783;28;20285;-65
2022/09/10 08:18:22;;;;;;;2.65;1.15;;;;;;;16.23;75.19;96513.47;2071498;28;20189;-65
2022/09/10 08:19:24;;;;;;;7.10;3.15;;;;;;;16.56;73.89;96484.88;2069947;28;20240;-65
2022/09/10 08:20:25;;;;;;;2.53;1.00;;;;;;;16.57;73.13;96511.09;2070239;28;20309;-65
2022/09/10 08:33:54;;;;;;;3.65;1.08;;;;;;;15.73;73.54;96513.34;2127365;27;20508;-63
2022/09/10 08:34:55;;;;;;;8.23;1.15;;;;;;;15.91;72.94;96527.06;2118360;28;20198;-63
2022/09/10 08:35:58;;;;;;;5.85;1.23;;;;;;;16.00;73.56;96512.44;2117856;28;20618;-66
2022/09/10 08:37:02;;;;;;;3.38;1.02;;;;;;;16.15;73.20;96526.31;2110237;28;20197;-64
2022/09/10 08:38:03;;;;;;;6.88;1.10;;;;;;;16.29;72.99;96523.59;2085629;28;20532;-63
2022/09/10 08:39:05;;;;;;;6.60;2.70;;;;;;;16.42;73.14;96525.38;2087362;28;20225;-63
2022/09/10 08:40:11;;;;;;;6.13;1.02;;;;;;;16.63;71.76;96513.31;2088188;28;20201;-63
2022/09/10 08:41:22;;;;;;;3.92;1.00;;;;;;;16.73;70.25;96525.81;2091011;28;20203;-63
2022/09/10 08:42:32;;;;;;;11.43;1.60;;;;;;;16.69;70.26;96532.28;2092373;28;20772;-63
2022/09/10 08:43:46;;;;;;;8.52;1.10;;;;;;;16.72;70.21;96517.09;2096580;28;20196;-63
2022/09/10 08:45:05;;;;;;;5.45;0.85;;;;;;;16.95;70.37;96533.91;2097083;28;20701;-64
2022/09/10 08:46:21;;;;;;;6.38;1.33;;;;;;;16.89;69.70;96538.75;2097317;28;20230;-63
2022/09/10 08:48:01;;;;;;;7.45;1.65;;;;;;;17.06;69.24;96527.00;2098584;28;20245;-63
2022/09/10 08:49:38;;;;;;;7.55;1.50;;;;;;;16.62;69.10;96526.56;2097664;28;20196;-62
2022/09/10 09:15:10;;;;;;;4.22;1.00;;;;;;;15.69;72.96;96540.78;2110658;28;20439;-70
2022/09/10 09:43:54;;;;;;;2.83;1.00;;;;;;;15.38;74.75;96544.63;2086594;28;20564;-69
2022/09/10 09:45:06;;;;;;;4.32;1.00;;;;;;;15.39;74.96;96548.94;2085957;28;20196;-70
2022/09/10 10:17:32;;;;;;;9.63;1.90;;;;;;;15.19;88.04;96557.19;2083880;27;20896;-75
2022/09/10 10:18:34;;;;;;;5.10;1.20;;;;;;;15.32;87.31;96549.31;2082590;28;20220;-75
2022/09/10 10:19:38;;;;;;;7.80;1.00;;;;;;;15.32;87.09;96553.75;2082450;28;20363;-75
2022/09/10 10:20:40;;;;;;;6.68;1.55;;;;;;;15.48;85.07;96543.91;2081484;28;20596;-76
2022/09/10 10:21:43;;;;;;;4.30;1.10;;;;;;;15.81;83.71;96555.81;2080511;28;20641;-76
2022/09/10 10:22:47;;;;;;;5.78;1.10;;;;;;;17.19;81.03;96543.66;2072031;28;20292;-76
2022/09/10 10:23:48;;;;;;;5.50;1.25;;;;;;;17.97;78.82;96551.13;2071993;28;20229;-75
2022/09/10 10:24:52;;;;;;;4.30;1.00;;;;;;;18.64;77.14;96553.00;2081468;28;20735;-75
2022/09/10 10:25:54;;;;;;;6.05;1.30;;;;;;;18.67;73.67;96542.19;2080767;28;20284;-75
2022/09/10 10:32:11;;;;;;;9.60;5.00;;;;;;;18.72;72.84;96540.00;2080224;28;20259;-70
2022/09/10 10:43:06;;;;;;;5.68;1.40;;;;;;;17.53;70.86;96527.94;2083674;27;20567;-68
2022/09/10 10:44:24;;;;;;;3.58;1.35;;;;;;;18.62;70.47;96527.66;2083565;28;20395;-67
2022/09/10 10:45:39;;;;;;;6.35;3.05;;;;;;;18.11;70.11;96533.28;2076815;28;20893;-68
2022/09/10 10:52:27;;;;;;;5.70;1.20;;;;;;;18.88;63.69;96525.56;2099225;27;20533;-65
2022/09/10 10:53:52;;;;;;;1.92;0.93;;;;;;;19.84;61.13;96517.81;2091217;28;20290;-73
2022/09/10 10:55:09;;;;;;;4.45;0.88;;;;;;;20.49;60.66;96525.53;2092079;28;21090;-73
2022/09/10 11:08:06;;;;;;;2.58;0.80;;;;;;;17.57;65.50;96513.56;2079798;28;20315;-66
2022/09/10 11:09:24;;;;;;;3.15;0.98;;;;;;;17.36;66.76;96507.25;2080445;28;20280;-67
2022/09/10 11:10:38;;;;;;;1.85;0.70;;;;;;;17.05;67.41;96496.31;2082397;28;20288;-67
2022/09/10 11:11:47;;;;;;;5.78;1.10;;;;;;;17.20;68.18;96518.91;2080455;28;20308;-66
2022/09/10 11:24:25;;;;;;;6.72;1.45;;;;;;;16.31;71.50;96526.94;2124345;27;20557;-69
2022/09/10 11:25:38;;;;;;;4.57;0.90;;;;;;;16.28;71.39;96519.25;2119962;28;20200;-69
2022/09/10 11:32:03;;;;;;;2.67;0.90;;;;;;;17.00;68.97;96523.03;2098657;28;20172;-69
2022/09/10 11:33:22;;;;;;;5.40;1.00;;;;;;;18.57;64.56;96528.00;2098842;28;20251;-69
2022/09/10 11:34:37;;;;;;;3.15;0.90;;;;;;;18.47;64.22;96508.56;2094564;28;20662;-68
2022/09/10 11:36:04;;;;;;;3.35;0.90;;;;;;;19.31;61.69;96513.34;2085366;28;20342;-69
2022/09/10 11:37:17;;;;;;;4.72;1.05;;;;;;;20.09;61.15;96510.41;2094042;28;20241;-69
2022/09/10 11:38:39;;;;;;;13.57;1.63;;;;;;;21.55;56.61;96512.69;2097996;28;20332;-69
2022/09/10 11:39:45;;;;;;;4.50;0.90;;;;;;;22.14;53.29;96497.50;2102580;28;20252;-69
2022/09/10 11:41:05;;;;;;;3.40;0.93;;;;;;;22.52;52.20;96507.34;2100591;28;20868;-69
2022/09/10 11:42:26;;;;;;;4.65;0.80;;;;;;;21.07;55.49;96490.41;2098999;28;20341;-69
2022/09/10 11:43:43;;;;;;;5.35;1.35;;;;;;;21.91;52.62;96507.59;2099519;28;20200;-70
2022/09/10 11:50:02;;;;;;;6.78;0.90;;;;;;;19.27;60.27;96514.56;2097262;28;20211;-70
2022/09/10 11:51:29;;;;;;;3.63;0.90;;;;;;;18.69;62.57;96489.16;2101365;28;20195;-70
2022/09/10 11:52:33;;;;;;;3.88;0.90;;;;;;;18.97;62.49;96509.00;2098759;28;20305;-70
2022/09/10 11:53:36;;;;;;;2.35;1.05;;;;;;;18.79;61.96;96487.47;2100275;28;20279;-70
2022/09/10 11:54:39;;;;;;;3.35;1.15;;;;;;;19.08;61.51;96506.31;2091979;28;20203;-70
2022/09/10 12:02:38;;;;;;;2.80;0.95;;;;;;;19.28;60.10;96510.94;2102131;28;20203;-70
2022/09/10 12:04:02;;;;;;;2.50;0.80;;;;;;;18.91;60.40;96506.84;2094358;28;20755;-70
2022/09/10 12:05:04;;;;;;;3.63;1.00;;;;;;;18.60;60.44;96512.75;2087504;28;20632;-70
2022/09/10 12:06:14;;;;;;;3.55;0.93;;;;;;;18.71;60.41;96488.06;2098476;28;20278;-71
2022/09/10 12:07:24;;;;;;;7.38;1.02;;;;;;;18.91;62.10;96510.31;2098101;28;20701;-70
2022/09/10 12:09:00;;;;;;;4.35;1.15;;;;;;;19.02;59.77;96503.31;2093186;28;20242;-70
2022/09/10 12:10:21;;;;;;;4.70;0.90;;;;;;;19.15;59.45;96505.81;2098022;28;20682;-70
2022/09/10 12:29:39;;;;;;;8.18;1.17;;;;;;;17.52;64.20;96501.66;2085245;28;20566;-69
2022/09/10 12:30:41;;;;;;;3.38;1.10;;;;;;;17.59;63.97;96510.81;2084114;28;20193;-69
2022/09/10 12:32:11;;;;;;;5.97;1.13;;;;;;;17.54;63.65;96510.31;2078883;28;20673;-69
2022/09/10 12:33:15;;;;;;;4.25;0.90;;;;;;;17.49;63.63;96502.72;2073063;28;20296;-69
2022/09/10 12:34:18;;;;;;;5.05;0.90;;;;;;;17.48;63.30;96501.03;2074415;28;20297;-68
2022/09/10 12:35:43;;;;;;;3.05;0.85;;;;;;;17.44;62.11;96499.59;2071185;28;20351;-69
2022/09/10 12:36:47;;;;;;;3.80;0.90;;;;;;;17.39;62.00;96497.28;2070095;28;20291;-68
2022/09/10 12:37:49;;;;;;;3.47;0.90;;;;;;;17.54;62.09;96497.94;2075480;28;20240;-71
2022/09/10 12:39:26;;;;;;;6.00;0.93;;;;;;;17.73;62.31;96507.13;2072290;28;20653;-71
2022/09/10 12:40:27;;;;;;;4.00;0.93;;;;;;;17.95;61.12;96498.41;2070527;28;20239;-72
2022/09/10 12:41:48;;;;;;;2.35;0.90;;;;;;;17.87;61.46;96506.06;2072250;28;20232;-71
2022/09/10 12:42:51;;;;;;;2.38;1.00;;;;;;;17.95;61.29;96501.06;2071076;28;20241;-71
2022/09/10 12:43:57;;;;;;;3.80;0.90;;;;;;;17.98;61.90;96492.91;2069515;28;20201;-71
2022/09/10 12:53:36;;;;;;;9.07;1.05;;;;;;;17.79;60.86;96491.66;2084686;27;20564;-68
2022/09/10 13:01:53;;;;;;;6.97;1.00;;;;;;;18.15;60.59;96486.31;2066266;28;20177;-69
2022/09/10 13:03:07;;;;;;;9.80;1.20;;;;;;;18.35;61.02;96486.56;2053032;28;20225;-68
2022/09/10 13:04:28;;;;;;;9.68;1.10;;;;;;;18.41;60.39;96488.72;2066496;28;20307;-68
2022/09/10 13:06:03;;;;;;;2.83;0.90;;;;;;;18.40;60.43;96482.59;2067842;28;20285;-68
2022/09/10 13:15:19;;;;;;;3.03;0.70;;;;;;;18.19;60.48;96476.34;2084244;28;20554;-65
2022/09/10 13:16:26;;;;;;;6.10;1.00;;;;;;;18.22;61.35;96482.25;2082153;28;20197;-65
2022/09/10 13:17:37;;;;;;;1.83;0.80;;;;;;;18.11;60.63;96483.06;2078664;28;20478;-64
2022/09/10 13:18:40;;;;;;;3.97;0.88;;;;;;;18.06;60.12;96471.19;2072301;28;20601;-65
2022/09/10 13:19:42;;;;;;;3.50;0.95;;;;;;;18.09;59.87;96477.09;2075778;28;20205;-65
2022/09/10 13:20:43;;;;;;;7.68;1.95;;;;;;;18.14;60.24;96471.41;2075726;28;20229;-65
2022/09/10 13:21:46;;;;;;;3.97;1.10;;;;;;;18.26;60.63;96477.56;2076785;28;20281;-67
2022/09/10 13:23:02;;;;;;;6.22;1.00;;;;;;;18.07;59.76;96468.41;2075940;28;20421;-69
2022/09/10 13:48:13;;;;;;;4.20;1.00;;;;;;;17.12;69.62;96501.03;2077909;28;20764;-66
2022/09/10 13:49:45;;;;;;;3.33;0.85;;;;;;;17.28;69.64;96500.75;2078241;28;20200;-67
2022/09/10 13:51:24;;;;;;;2.20;0.88;;;;;;;17.19;69.60;96498.78;2077657;28;20280;-66
2022/09/10 13:52:36;;;;;;;4.25;1.05;;;;;;;16.94;70.09;96500.56;2077407;28;20296;-67
2022/09/10 13:53:41;;;;;;;2.00;0.70;;;;;;;16.76;70.77;96491.31;2077605;28;20605;-67
2022/09/10 13:54:50;;;;;;;2.72;0.77;;;;;;;16.58;71.38;96478.53;2079007;28;20765;-66
2022/09/10 13:56:00;;;;;;;2.05;0.90;;;;;;;16.50;71.21;96470.31;2078661;28;20287;-66
2022/09/10 13:57:10;;;;;;;3.85;0.95;;;;;;;16.55;72.20;96493.72;2078730;28;20720;-66
2022/09/10 14:12:03;;;;;;;4.53;1.01;;;;;;;16.11;75.88;96494.09;4264470;27;20545;-64
2022/09/10 14:13:04;;;;;;;3.43;0.80;;;;;;;16.25;76.16;96500.19;2050681;28;1235962;-65
2022/09/10 14:14:15;;;;;;;6.07;0.90;;;;;;;16.38;74.43;96490.47;2094699;28;20229;-64
2022/09/10 14:15:22;;;;;;;12.38;1.35;;;;;;;16.42;73.33;96493.75;2090944;28;20623;-64
2022/09/10 14:16:35;;;;;;;4.13;0.90;;;;;;;16.86;71.94;96481.81;2090874;28;20686;-65
2022/09/10 14:17:43;;;;;;;4.55;1.73;;;;;;;16.84;72.14;96493.44;2086378;28;20798;-64
2022/09/10 14:18:50;;;;;;;2.85;0.85;;;;;;;16.87;72.04;96490.56;2086136;28;20223;-65
2022/09/10 14:19:58;;;;;;;4.95;0.95;;;;;;;16.76;71.06;96478.13;2085671;28;20223;-65
2022/09/10 14:20:59;;;;;;;4.63;0.73;;;;;;;16.83;70.64;96494.38;2086532;28;20203;-65
2022/09/10 14:22:02;;;;;;;4.70;1.17;;;;;;;16.80;70.89;96488.34;2086339;28;20555;-65
2022/09/10 14:23:15;;;;;;;2.28;1.13;;;;;;;16.72;70.77;96466.13;2095020;28;20666;-65
2022/09/10 14:24:33;;;;;;;4.88;0.98;;;;;;;16.92;70.71;96488.44;2095302;28;20622;-65
2022/09/10 14:25:37;;;;;;;6.18;0.90;;;;;;;16.95;70.15;96478.53;2093478;28;20274;-65
2022/09/10 14:26:38;;;;;;;3.95;1.00;;;;;;;17.12;70.58;96485.19;2087416;28;20830;-65
2022/09/10 14:27:41;;;;;;;3.75;1.08;;;;;;;17.29;70.40;96477.81;2086616;28;20307;-65
2022/09/10 14:28:50;;;;;;;3.45;1.20;;;;;;;17.42;70.34;96480.38;2095209;28;20245;-65
2022/09/10 14:29:56;;;;;;;7.47;0.85;;;;;;;17.36;70.48;96478.22;2093750;28;20291;-65
2022/09/10 14:31:25;;;;;;;4.30;0.80;;;;;;;17.38;69.45;96479.78;2095160;28;20234;-65
2022/09/10 14:32:32;;;;;;;4.05;1.10;;;;;;;17.53;69.11;96471.66;2092950;28;20380;-65
2022/09/10 14:33:35;;;;;;;5.38;1.10;;;;;;;17.63;68.73;96470.00;2094690;28;20219;-65
2022/09/10 14:34:36;;;;;;;3.00;1.00;;;;;;;17.59;68.64;96476.50;2094206;28;20192;-65
2022/09/10 14:35:41;;;;;;;6.50;1.00;;;;;;;17.54;68.66;96470.72;2095257;28;20246;-65
2022/09/10 14:44:57;;;;;;;6.20;1.40;;;;;;;17.82;65.81;96452.78;2101619;27;20550;-62
2022/09/10 14:46:06;;;;;;;4.18;1.02;;;;;;;17.80;66.53;96460.78;2100290;28;20336;-62
2022/09/10 14:47:08;;;;;;;3.05;1.00;;;;;;;17.92;66.42;96464.31;2094819;28;20867;-62
2022/09/10 15:28:49;;;;;;;7.10;1.30;;;;;;;15.76;88.97;96501.75;2057619;27;1288804;-68
2022/09/10 15:29:50;;;;;;;5.47;1.25;;;;;;;15.89;88.10;96513.16;2100987;28;20291;-68
2022/09/10 15:36:05;;;;;;;7.93;1.60;;;;;;;15.76;83.72;96512.28;2075202;28;20571;-69
2022/09/10 15:57:02;;;;;;;5.60;1.40;;;;;;;15.05;86.32;96504.66;2102773;27;20635;-72
2022/09/10 15:58:04;;;;;;;3.10;1.00;;;;;;;15.06;86.65;96506.34;2091207;28;20671;-72
2022/09/10 15:59:07;;;;;;;4.80;1.55;;;;;;;15.07;87.35;96508.03;2094757;28;20198;-72
2022/09/10 16:31:50;;;;;;;4.05;1.10;;;;;;;14.95;84.21;96525.41;2108690;27;20548;-70
2022/09/10 16:32:51;;;;;;;4.88;1.10;;;;;;;14.95;84.79;96501.75;2094999;28;20309;-70
2022/09/10 16:41:24;;;;;;;4.10;0.90;;;;;;;15.40;82.11;96524.31;2084566;28;21137;-70
2022/09/10 16:42:27;;;;;;;3.55;0.90;;;;;;;15.26;81.01;96496.28;2079535;28;20233;-73
2022/09/10 16:43:31;;;;;;;4.68;0.90;;;;;;;15.33;81.52;96502.84;2076488;28;20293;-73
2022/09/10 17:14:03;;;;;;;9.18;2.97;;;;;;;14.50;84.34;96543.97;2083180;28;20782;-64
